sensor_id;sensor_type;location;lat;lon;timestamp;P1;durP1;ratioP1;P2;durP2;ratioP2
9508;SDS011;4792;50.088;8.122;2023-07-31T00:01:40;6.07;;;2.20;;
9508;SDS011;4792;50.088;8.122;2023-07-31T00:04:09;5.53;;;2.60;;
9508;SDS011;4792;50.088;8.122;2023-07-31T00:06:40;4.30;;;2.00;;
9508;SDS011;4792;50.088;8.122;2023-07-31T00:09:09;7.00;;;2.47;;
9508;SDS011;4792;50.088;8.122;2023-07-31T00:11:38;7.23;;;2.37;;
9508;SDS011;4792;50.088;8.122;2023-07-31T00:14:12;2.87;;;2.17;;
9508;SDS011;4792;50.088;8.122;2023-07-31T00:16:43;5.60;;;2.03;;
9508;SDS011;4792;50.088;8.122;2023-07-31T00:19:12;9.63;;;2.63;;
9508;SDS011;4792;50.088;8.122;2023-07-31T00:21:40;3.63;;;2.27;;
9508;SDS011;4792;50.088;8.122;2023-07-31T00:24:10;4.83;;;2.30;;
9508;SDS011;4792;50.088;8.122;2023-07-31T00:26:38;3.47;;;2.30;;
9508;SDS011;4792;50.088;8.122;2023-07-31T00:29:07;4.97;;;2.37;;
9508;SDS011;4792;50.088;8.122;2023-07-31T00:31:34;5.27;;;2.67;;
9508;SDS011;4792;50.088;8.122;2023-07-31T00:34:02;3.37;;;2.10;;
9508;SDS011;4792;50.088;8.122;2023-07-31T00:36:30;4.93;;;2.27;;
9508;SDS011;4792;50.088;8.122;2023-07-31T00:39:02;6.73;;;2.50;;
9508;SDS011;4792;50.088;8.122;2023-07-31T00:41:36;8.27;;;3.00;;
9508;SDS011;4792;50.088;8.122;2023-07-31T00:44:04;5.17;;;2.30;;
9508;SDS011;4792;50.088;8.122;2023-07-31T00:46:32;3.07;;;1.93;;
9508;SDS011;4792;50.088;8.122;2023-07-31T00:49:00;5.40;;;2.80;;
9508;SDS011;4792;50.088;8.122;2023-07-31T00:51:28;8.47;;;2.60;;
9508;SDS011;4792;50.088;8.122;2023-07-31T00:53:57;5.90;;;2.27;;
9508;SDS011;4792;50.088;8.122;2023-07-31T00:56:25;4.70;;;2.27;;
9508;SDS011;4792;50.088;8.122;2023-07-31T00:58:54;5.33;;;2.50;;
9508;SDS011;4792;50.088;8.122;2023-07-31T01:01:22;4.87;;;2.50;;
9508;SDS011;4792;50.088;8.122;2023-07-31T01:03:50;5.07;;;2.23;;
9508;SDS011;4792;50.088;8.122;2023-07-31T01:06:23;6.50;;;2.63;;
9508;SDS011;4792;50.088;8.122;2023-07-31T01:08:58;3.40;;;2.20;;
9508;SDS011;4792;50.088;8.122;2023-07-31T01:11:29;5.03;;;2.10;;
9508;SDS011;4792;50.088;8.122;2023-07-31T01:13:59;5.93;;;2.40;;
9508;SDS011;4792;50.088;8.122;2023-07-31T01:16:27;6.07;;;2.40;;
9508;SDS011;4792;50.088;8.122;2023-07-31T01:18:55;8.40;;;2.70;;
9508;SDS011;4792;50.088;8.122;2023-07-31T01:21:27;4.93;;;2.23;;
9508;SDS011;4792;50.088;8.122;2023-07-31T01:24:19;7.10;;;2.60;;
9508;SDS011;4792;50.088;8.122;2023-07-31T01:26:51;5.70;;;2.27;;
9508;SDS011;4792;50.088;8.122;2023-07-31T01:29:23;6.20;;;2.27;;
9508;SDS011;4792;50.088;8.122;2023-07-31T01:32:01;4.03;;;2.20;;
9508;SDS011;4792;50.088;8.122;2023-07-31T01:34:30;7.47;;;2.63;;
9508;SDS011;4792;50.088;8.122;2023-07-31T01:36:58;5.13;;;2.50;;
9508;SDS011;4792;50.088;8.122;2023-07-31T01:39:26;5.43;;;2.57;;
9508;SDS011;4792;50.088;8.122;2023-07-31T01:41:55;4.90;;;2.50;;
9508;SDS011;4792;50.088;8.122;2023-07-31T01:44:22;5.10;;;2.40;;
9508;SDS011;4792;50.088;8.122;2023-07-31T01:46:50;7.00;;;2.57;;
9508;SDS011;4792;50.088;8.122;2023-07-31T01:49:18;4.83;;;2.53;;
9508;SDS011;4792;50.088;8.122;2023-07-31T01:51:45;7.93;;;3.27;;
9508;SDS011;4792;50.088;8.122;2023-07-31T01:54:13;6.93;;;3.03;;
9508;SDS011;4792;50.088;8.122;2023-07-31T01:56:40;5.20;;;2.70;;
9508;SDS011;4792;50.088;8.122;2023-07-31T01:59:10;8.17;;;3.40;;
9508;SDS011;4792;50.088;8.122;2023-07-31T02:01:37;4.47;;;2.50;;
9508;SDS011;4792;50.088;8.122;2023-07-31T02:04:05;6.40;;;3.10;;
9508;SDS011;4792;50.088;8.122;2023-07-31T02:06:33;8.00;;;2.80;;
9508;SDS011;4792;50.088;8.122;2023-07-31T02:09:00;8.73;;;3.10;;
9508;SDS011;4792;50.088;8.122;2023-07-31T02:11:28;4.90;;;2.50;;
9508;SDS011;4792;50.088;8.122;2023-07-31T02:13:55;6.73;;;2.83;;
9508;SDS011;4792;50.088;8.122;2023-07-31T02:16:24;7.30;;;2.80;;
9508;SDS011;4792;50.088;8.122;2023-07-31T02:18:52;7.17;;;2.80;;
9508;SDS011;4792;50.088;8.122;2023-07-31T02:21:19;5.40;;;3.20;;
9508;SDS011;4792;50.088;8.122;2023-07-31T02:23:47;6.03;;;3.23;;
9508;SDS011;4792;50.088;8.122;2023-07-31T02:26:15;6.87;;;2.63;;
9508;SDS011;4792;50.088;8.122;2023-07-31T02:28:42;3.73;;;2.70;;
9508;SDS011;4792;50.088;8.122;2023-07-31T02:31:10;5.63;;;2.80;;
9508;SDS011;4792;50.088;8.122;2023-07-31T02:33:39;6.20;;;2.30;;
9508;SDS011;4792;50.088;8.122;2023-07-31T02:36:06;6.23;;;2.60;;
9508;SDS011;4792;50.088;8.122;2023-07-31T02:38:34;6.33;;;2.53;;
9508;SDS011;4792;50.088;8.122;2023-07-31T02:41:01;7.27;;;2.70;;
9508;SDS011;4792;50.088;8.122;2023-07-31T02:43:29;3.30;;;1.83;;
9508;SDS011;4792;50.088;8.122;2023-07-31T02:45:57;3.17;;;2.13;;
9508;SDS011;4792;50.088;8.122;2023-07-31T02:48:24;5.97;;;2.43;;
9508;SDS011;4792;50.088;8.122;2023-07-31T02:50:53;4.80;;;2.40;;
9508;SDS011;4792;50.088;8.122;2023-07-31T02:53:21;3.03;;;2.20;;
9508;SDS011;4792;50.088;8.122;2023-07-31T02:55:49;4.17;;;2.30;;
9508;SDS011;4792;50.088;8.122;2023-07-31T02:58:17;4.33;;;2.40;;
9508;SDS011;4792;50.088;8.122;2023-07-31T03:00:44;4.17;;;2.10;;
9508;SDS011;4792;50.088;8.122;2023-07-31T03:03:12;4.93;;;2.37;;
9508;SDS011;4792;50.088;8.122;2023-07-31T03:05:40;4.23;;;2.30;;
9508;SDS011;4792;50.088;8.122;2023-07-31T03:08:08;6.77;;;2.40;;
9508;SDS011;4792;50.088;8.122;2023-07-31T03:10:36;3.93;;;2.40;;
9508;SDS011;4792;50.088;8.122;2023-07-31T03:13:04;5.40;;;2.50;;
9508;SDS011;4792;50.088;8.122;2023-07-31T03:15:31;5.23;;;2.47;;
9508;SDS011;4792;50.088;8.122;2023-07-31T03:17:59;5.87;;;2.70;;
9508;SDS011;4792;50.088;8.122;2023-07-31T03:20:27;4.97;;;2.70;;
9508;SDS011;4792;50.088;8.122;2023-07-31T03:22:54;4.53;;;2.50;;
9508;SDS011;4792;50.088;8.122;2023-07-31T03:25:23;3.63;;;2.30;;
9508;SDS011;4792;50.088;8.122;2023-07-31T03:27:51;3.90;;;2.50;;
9508;SDS011;4792;50.088;8.122;2023-07-31T03:30:18;6.13;;;2.83;;
9508;SDS011;4792;50.088;8.122;2023-07-31T03:32:46;4.53;;;2.67;;
9508;SDS011;4792;50.088;8.122;2023-07-31T03:35:14;4.07;;;2.53;;
9508;SDS011;4792;50.088;8.122;2023-07-31T03:37:41;4.20;;;2.47;;
9508;SDS011;4792;50.088;8.122;2023-07-31T03:40:09;4.37;;;2.53;;
9508;SDS011;4792;50.088;8.122;2023-07-31T03:42:39;6.27;;;2.63;;
9508;SDS011;4792;50.088;8.122;2023-07-31T03:45:07;4.83;;;2.50;;
9508;SDS011;4792;50.088;8.122;2023-07-31T03:47:35;8.77;;;2.50;;
9508;SDS011;4792;50.088;8.122;2023-07-31T03:50:03;5.63;;;2.83;;
9508;SDS011;4792;50.088;8.122;2023-07-31T03:52:32;7.07;;;2.30;;
9508;SDS011;4792;50.088;8.122;2023-07-31T03:54:59;7.03;;;2.70;;
9508;SDS011;4792;50.088;8.122;2023-07-31T03:57:27;6.13;;;2.60;;
9508;SDS011;4792;50.088;8.122;2023-07-31T03:59:56;4.83;;;2.50;;
9508;SDS011;4792;50.088;8.122;2023-07-31T04:02:24;5.87;;;2.80;;
9508;SDS011;4792;50.088;8.122;2023-07-31T04:04:51;3.40;;;2.70;;
9508;SDS011;4792;50.088;8.122;2023-07-31T04:07:19;5.03;;;2.53;;
9508;SDS011;4792;50.088;8.122;2023-07-31T04:09:47;5.43;;;2.73;;
9508;SDS011;4792;50.088;8.122;2023-07-31T04:12:14;6.47;;;2.87;;
9508;SDS011;4792;50.088;8.122;2023-07-31T04:14:42;4.70;;;2.80;;
9508;SDS011;4792;50.088;8.122;2023-07-31T04:17:11;6.30;;;2.83;;
9508;SDS011;4792;50.088;8.122;2023-07-31T04:19:39;7.07;;;2.97;;
9508;SDS011;4792;50.088;8.122;2023-07-31T04:22:06;7.07;;;2.90;;
9508;SDS011;4792;50.088;8.122;2023-07-31T04:24:34;6.20;;;2.83;;
9508;SDS011;4792;50.088;8.122;2023-07-31T04:27:01;9.07;;;2.77;;
9508;SDS011;4792;50.088;8.122;2023-07-31T04:29:29;8.43;;;2.90;;
9508;SDS011;4792;50.088;8.122;2023-07-31T04:31:57;6.43;;;2.97;;
9508;SDS011;4792;50.088;8.122;2023-07-31T04:34:26;3.50;;;2.43;;
9508;SDS011;4792;50.088;8.122;2023-07-31T04:36:53;5.57;;;2.73;;
9508;SDS011;4792;50.088;8.122;2023-07-31T04:39:21;7.50;;;2.83;;
9508;SDS011;4792;50.088;8.122;2023-07-31T04:41:49;7.67;;;3.00;;
9508;SDS011;4792;50.088;8.122;2023-07-31T04:44:16;7.47;;;3.37;;
9508;SDS011;4792;50.088;8.122;2023-07-31T04:46:44;7.93;;;3.13;;
9508;SDS011;4792;50.088;8.122;2023-07-31T04:49:12;7.67;;;3.80;;
9508;SDS011;4792;50.088;8.122;2023-07-31T04:51:41;11.97;;;3.50;;
9508;SDS011;4792;50.088;8.122;2023-07-31T04:54:08;6.67;;;3.10;;
9508;SDS011;4792;50.088;8.122;2023-07-31T04:56:36;7.97;;;3.00;;
9508;SDS011;4792;50.088;8.122;2023-07-31T04:59:04;8.03;;;3.30;;
9508;SDS011;4792;50.088;8.122;2023-07-31T05:01:32;9.97;;;3.67;;
9508;SDS011;4792;50.088;8.122;2023-07-31T05:04:00;7.30;;;3.17;;
9508;SDS011;4792;50.088;8.122;2023-07-31T05:06:27;9.37;;;3.37;;
9508;SDS011;4792;50.088;8.122;2023-07-31T05:08:56;8.17;;;2.87;;
9508;SDS011;4792;50.088;8.122;2023-07-31T05:11:24;6.87;;;3.27;;
9508;SDS011;4792;50.088;8.122;2023-07-31T05:13:52;7.87;;;3.03;;
9508;SDS011;4792;50.088;8.122;2023-07-31T05:16:19;7.90;;;3.53;;
9508;SDS011;4792;50.088;8.122;2023-07-31T05:18:47;7.40;;;3.37;;
9508;SDS011;4792;50.088;8.122;2023-07-31T05:21:14;8.23;;;3.20;;
9508;SDS011;4792;50.088;8.122;2023-07-31T05:23:42;6.33;;;2.90;;
9508;SDS011;4792;50.088;8.122;2023-07-31T05:26:11;7.30;;;3.20;;
9508;SDS011;4792;50.088;8.122;2023-07-31T05:28:40;8.40;;;3.43;;
9508;SDS011;4792;50.088;8.122;2023-07-31T05:31:08;5.90;;;2.97;;
9508;SDS011;4792;50.088;8.122;2023-07-31T05:33:35;6.07;;;3.30;;
9508;SDS011;4792;50.088;8.122;2023-07-31T05:36:03;8.63;;;3.27;;
9508;SDS011;4792;50.088;8.122;2023-07-31T05:38:31;8.00;;;3.77;;
9508;SDS011;4792;50.088;8.122;2023-07-31T05:40:59;13.37;;;3.70;;
9508;SDS011;4792;50.088;8.122;2023-07-31T05:43:28;7.20;;;3.30;;
9508;SDS011;4792;50.088;8.122;2023-07-31T05:45:55;9.53;;;3.50;;
9508;SDS011;4792;50.088;8.122;2023-07-31T05:48:23;14.40;;;3.20;;
9508;SDS011;4792;50.088;8.122;2023-07-31T05:50:50;4.77;;;3.00;;
9508;SDS011;4792;50.088;8.122;2023-07-31T05:53:18;7.73;;;3.57;;
9508;SDS011;4792;50.088;8.122;2023-07-31T05:55:46;6.93;;;3.60;;
9508;SDS011;4792;50.088;8.122;2023-07-31T05:58:13;9.53;;;3.80;;
9508;SDS011;4792;50.088;8.122;2023-07-31T06:00:42;8.63;;;3.43;;
9508;SDS011;4792;50.088;8.122;2023-07-31T06:03:10;8.40;;;3.10;;
9508;SDS011;4792;50.088;8.122;2023-07-31T06:05:38;12.17;;;3.80;;
9508;SDS011;4792;50.088;8.122;2023-07-31T06:08:06;6.80;;;3.20;;
9508;SDS011;4792;50.088;8.122;2023-07-31T06:10:33;9.63;;;3.17;;
9508;SDS011;4792;50.088;8.122;2023-07-31T06:13:01;6.87;;;3.97;;
9508;SDS011;4792;50.088;8.122;2023-07-31T06:15:29;6.20;;;3.23;;
9508;SDS011;4792;50.088;8.122;2023-07-31T06:17:58;9.60;;;3.60;;
9508;SDS011;4792;50.088;8.122;2023-07-31T06:20:28;7.90;;;3.47;;
9508;SDS011;4792;50.088;8.122;2023-07-31T06:22:55;5.27;;;3.20;;
9508;SDS011;4792;50.088;8.122;2023-07-31T06:25:23;6.90;;;3.40;;
9508;SDS011;4792;50.088;8.122;2023-07-31T06:27:51;8.20;;;3.70;;
9508;SDS011;4792;50.088;8.122;2023-07-31T06:30:18;6.73;;;3.67;;
9508;SDS011;4792;50.088;8.122;2023-07-31T06:32:46;6.50;;;3.30;;
9508;SDS011;4792;50.088;8.122;2023-07-31T06:35:15;6.57;;;3.40;;
9508;SDS011;4792;50.088;8.122;2023-07-31T06:37:43;6.23;;;3.07;;
9508;SDS011;4792;50.088;8.122;2023-07-31T06:40:11;13.97;;;3.63;;
9508;SDS011;4792;50.088;8.122;2023-07-31T06:42:38;8.23;;;3.57;;
9508;SDS011;4792;50.088;8.122;2023-07-31T06:45:07;10.03;;;3.30;;
9508;SDS011;4792;50.088;8.122;2023-07-31T06:47:35;9.40;;;4.00;;
9508;SDS011;4792;50.088;8.122;2023-07-31T06:50:03;8.30;;;3.37;;
9508;SDS011;4792;50.088;8.122;2023-07-31T06:52:32;8.10;;;3.50;;
9508;SDS011;4792;50.088;8.122;2023-07-31T06:55:00;9.37;;;3.33;;
9508;SDS011;4792;50.088;8.122;2023-07-31T06:57:30;12.43;;;3.87;;
9508;SDS011;4792;50.088;8.122;2023-07-31T06:59:57;8.30;;;3.30;;
9508;SDS011;4792;50.088;8.122;2023-07-31T07:02:27;6.90;;;3.37;;
9508;SDS011;4792;50.088;8.122;2023-07-31T07:04:58;8.37;;;3.87;;
9508;SDS011;4792;50.088;8.122;2023-07-31T07:07:26;10.60;;;3.57;;
9508;SDS011;4792;50.088;8.122;2023-07-31T07:09:57;9.83;;;3.37;;
9508;SDS011;4792;50.088;8.122;2023-07-31T07:12:28;8.50;;;3.20;;
9508;SDS011;4792;50.088;8.122;2023-07-31T07:14:56;8.63;;;3.37;;
9508;SDS011;4792;50.088;8.122;2023-07-31T07:17:25;11.80;;;3.97;;
9508;SDS011;4792;50.088;8.122;2023-07-31T07:19:55;10.10;;;3.20;;
9508;SDS011;4792;50.088;8.122;2023-07-31T07:22:25;9.77;;;3.20;;
9508;SDS011;4792;50.088;8.122;2023-07-31T07:24:59;9.83;;;3.87;;
9508;SDS011;4792;50.088;8.122;2023-07-31T07:27:31;13.20;;;3.53;;
9508;SDS011;4792;50.088;8.122;2023-07-31T07:30:03;9.37;;;3.40;;
9508;SDS011;4792;50.088;8.122;2023-07-31T07:32:31;7.33;;;3.37;;
9508;SDS011;4792;50.088;8.122;2023-07-31T07:35:00;8.13;;;3.80;;
9508;SDS011;4792;50.088;8.122;2023-07-31T07:37:33;7.83;;;3.90;;
9508;SDS011;4792;50.088;8.122;2023-07-31T07:40:07;6.50;;;3.23;;
9508;SDS011;4792;50.088;8.122;2023-07-31T07:42:36;7.53;;;3.83;;
9508;SDS011;4792;50.088;8.122;2023-07-31T07:45:04;6.80;;;3.43;;
9508;SDS011;4792;50.088;8.122;2023-07-31T07:47:34;9.20;;;3.70;;
9508;SDS011;4792;50.088;8.122;2023-07-31T07:50:04;8.37;;;3.30;;
9508;SDS011;4792;50.088;8.122;2023-07-31T07:52:35;5.27;;;3.37;;
9508;SDS011;4792;50.088;8.122;2023-07-31T07:55:04;9.17;;;3.60;;
9508;SDS011;4792;50.088;8.122;2023-07-31T07:57:34;8.73;;;3.80;;
9508;SDS011;4792;50.088;8.122;2023-07-31T08:00:03;10.10;;;3.50;;
9508;SDS011;4792;50.088;8.122;2023-07-31T08:02:33;8.13;;;3.53;;
9508;SDS011;4792;50.088;8.122;2023-07-31T08:05:02;5.70;;;3.40;;
9508;SDS011;4792;50.088;8.122;2023-07-31T08:07:30;8.47;;;3.50;;
9508;SDS011;4792;50.088;8.122;2023-07-31T08:09:58;7.60;;;3.80;;
9508;SDS011;4792;50.088;8.122;2023-07-31T08:12:30;6.20;;;3.10;;
9508;SDS011;4792;50.088;8.122;2023-07-31T08:14:58;8.13;;;3.50;;
9508;SDS011;4792;50.088;8.122;2023-07-31T08:17:26;9.90;;;3.57;;
9508;SDS011;4792;50.088;8.122;2023-07-31T08:19:54;7.17;;;3.43;;
9508;SDS011;4792;50.088;8.122;2023-07-31T08:22:24;8.23;;;3.60;;
9508;SDS011;4792;50.088;8.122;2023-07-31T08:24:52;9.30;;;3.70;;
9508;SDS011;4792;50.088;8.122;2023-07-31T08:27:19;10.50;;;3.70;;
9508;SDS011;4792;50.088;8.122;2023-07-31T08:29:49;8.33;;;3.60;;
9508;SDS011;4792;50.088;8.122;2023-07-31T08:32:16;11.30;;;3.30;;
9508;SDS011;4792;50.088;8.122;2023-07-31T08:34:44;9.90;;;3.20;;
9508;SDS011;4792;50.088;8.122;2023-07-31T08:37:11;7.60;;;3.20;;
9508;SDS011;4792;50.088;8.122;2023-07-31T08:39:39;7.37;;;2.93;;
9508;SDS011;4792;50.088;8.122;2023-07-31T08:42:07;7.80;;;3.40;;
9508;SDS011;4792;50.088;8.122;2023-07-31T08:44:35;8.27;;;3.47;;
9508;SDS011;4792;50.088;8.122;2023-07-31T08:47:05;6.53;;;3.43;;
9508;SDS011;4792;50.088;8.122;2023-07-31T08:49:33;5.53;;;3.03;;
9508;SDS011;4792;50.088;8.122;2023-07-31T08:52:01;8.40;;;3.20;;
9508;SDS011;4792;50.088;8.122;2023-07-31T08:54:29;6.17;;;3.50;;
9508;SDS011;4792;50.088;8.122;2023-07-31T08:56:57;7.03;;;2.80;;
9508;SDS011;4792;50.088;8.122;2023-07-31T08:59:26;7.47;;;3.50;;
9508;SDS011;4792;50.088;8.122;2023-07-31T09:01:55;8.50;;;3.63;;
9508;SDS011;4792;50.088;8.122;2023-07-31T09:04:26;6.10;;;3.40;;
9508;SDS011;4792;50.088;8.122;2023-07-31T09:06:56;8.30;;;3.40;;
9508;SDS011;4792;50.088;8.122;2023-07-31T09:09:25;8.17;;;3.50;;
9508;SDS011;4792;50.088;8.122;2023-07-31T09:11:52;5.67;;;3.00;;
9508;SDS011;4792;50.088;8.122;2023-07-31T09:14:20;5.80;;;3.33;;
9508;SDS011;4792;50.088;8.122;2023-07-31T09:16:52;10.20;;;3.27;;
9508;SDS011;4792;50.088;8.122;2023-07-31T09:19:29;6.83;;;3.33;;
9508;SDS011;4792;50.088;8.122;2023-07-31T09:22:00;9.73;;;3.47;;
9508;SDS011;4792;50.088;8.122;2023-07-31T09:24:30;5.37;;;3.00;;
9508;SDS011;4792;50.088;8.122;2023-07-31T09:26:59;7.80;;;3.40;;
9508;SDS011;4792;50.088;8.122;2023-07-31T09:29:28;6.40;;;3.20;;
9508;SDS011;4792;50.088;8.122;2023-07-31T09:31:56;6.37;;;3.30;;
9508;SDS011;4792;50.088;8.122;2023-07-31T09:34:30;8.70;;;3.63;;
9508;SDS011;4792;50.088;8.122;2023-07-31T09:37:04;8.83;;;3.37;;
9508;SDS011;4792;50.088;8.122;2023-07-31T09:39:32;9.00;;;3.17;;
9508;SDS011;4792;50.088;8.122;2023-07-31T09:41:59;5.30;;;3.07;;
9508;SDS011;4792;50.088;8.122;2023-07-31T09:44:37;6.47;;;3.03;;
9508;SDS011;4792;50.088;8.122;2023-07-31T09:47:06;9.10;;;3.50;;
9508;SDS011;4792;50.088;8.122;2023-07-31T09:49:35;6.73;;;3.27;;
9508;SDS011;4792;50.088;8.122;2023-07-31T09:52:03;7.20;;;3.17;;
9508;SDS011;4792;50.088;8.122;2023-07-31T09:54:39;5.57;;;3.30;;
9508;SDS011;4792;50.088;8.122;2023-07-31T09:57:06;6.83;;;3.03;;
9508;SDS011;4792;50.088;8.122;2023-07-31T09:59:35;5.63;;;3.33;;
9508;SDS011;4792;50.088;8.122;2023-07-31T10:02:03;7.93;;;3.50;;
9508;SDS011;4792;50.088;8.122;2023-07-31T10:04:31;4.83;;;3.03;;
9508;SDS011;4792;50.088;8.122;2023-07-31T10:07:00;6.63;;;3.20;;
9508;SDS011;4792;50.088;8.122;2023-07-31T10:09:29;4.60;;;3.03;;
9508;SDS011;4792;50.088;8.122;2023-07-31T10:11:59;6.33;;;3.40;;
9508;SDS011;4792;50.088;8.122;2023-07-31T10:14:27;5.60;;;3.40;;
9508;SDS011;4792;50.088;8.122;2023-07-31T10:16:55;9.80;;;3.10;;
9508;SDS011;4792;50.088;8.122;2023-07-31T10:19:23;9.10;;;3.60;;
9508;SDS011;4792;50.088;8.122;2023-07-31T10:21:51;9.77;;;3.90;;
9508;SDS011;4792;50.088;8.122;2023-07-31T10:24:21;6.80;;;3.30;;
9508;SDS011;4792;50.088;8.122;2023-07-31T10:26:53;5.73;;;3.27;;
9508;SDS011;4792;50.088;8.122;2023-07-31T10:29:25;5.30;;;3.10;;
9508;SDS011;4792;50.088;8.122;2023-07-31T10:31:52;6.93;;;3.17;;
9508;SDS011;4792;50.088;8.122;2023-07-31T10:34:21;7.27;;;3.40;;
9508;SDS011;4792;50.088;8.122;2023-07-31T10:36:49;6.17;;;3.57;;
9508;SDS011;4792;50.088;8.122;2023-07-31T10:42:14;5.77;;;3.57;;
9508;SDS011;4792;50.088;8.122;2023-07-31T10:44:46;5.87;;;2.93;;
9508;SDS011;4792;50.088;8.122;2023-07-31T10:47:14;6.40;;;3.53;;
9508;SDS011;4792;50.088;8.122;2023-07-31T10:49:44;9.40;;;3.57;;
9508;SDS011;4792;50.088;8.122;2023-07-31T10:52:12;6.50;;;3.20;;
9508;SDS011;4792;50.088;8.122;2023-07-31T10:54:42;5.43;;;2.80;;
9508;SDS011;4792;50.088;8.122;2023-07-31T10:57:18;6.00;;;3.20;;
9508;SDS011;4792;50.088;8.122;2023-07-31T10:59:47;5.67;;;3.20;;
9508;SDS011;4792;50.088;8.122;2023-07-31T11:02:25;5.43;;;3.07;;
9508;SDS011;4792;50.088;8.122;2023-07-31T11:05:05;5.53;;;3.07;;
9508;SDS011;4792;50.088;8.122;2023-07-31T11:07:46;4.53;;;3.20;;
9508;SDS011;4792;50.088;8.122;2023-07-31T11:10:17;4.87;;;2.83;;
9508;SDS011;4792;50.088;8.122;2023-07-31T11:12:45;9.97;;;4.57;;
9508;SDS011;4792;50.088;8.122;2023-07-31T11:15:13;4.97;;;3.13;;
9508;SDS011;4792;50.088;8.122;2023-07-31T11:17:41;5.17;;;3.20;;
9508;SDS011;4792;50.088;8.122;2023-07-31T11:20:09;7.47;;;3.03;;
9508;SDS011;4792;50.088;8.122;2023-07-31T11:22:37;5.87;;;3.30;;
9508;SDS011;4792;50.088;8.122;2023-07-31T11:25:05;5.00;;;2.97;;
9508;SDS011;4792;50.088;8.122;2023-07-31T11:27:39;5.20;;;3.07;;
9508;SDS011;4792;50.088;8.122;2023-07-31T11:30:08;7.00;;;3.23;;
9508;SDS011;4792;50.088;8.122;2023-07-31T11:32:37;5.03;;;3.20;;
9508;SDS011;4792;50.088;8.122;2023-07-31T11:35:05;4.97;;;3.00;;
9508;SDS011;4792;50.088;8.122;2023-07-31T11:37:44;6.20;;;3.10;;
9508;SDS011;4792;50.088;8.122;2023-07-31T11:40:11;9.67;;;3.67;;
9508;SDS011;4792;50.088;8.122;2023-07-31T11:42:41;6.10;;;2.90;;
9508;SDS011;4792;50.088;8.122;2023-07-31T11:45:09;8.20;;;3.23;;
9508;SDS011;4792;50.088;8.122;2023-07-31T11:47:37;4.87;;;2.80;;
9508;SDS011;4792;50.088;8.122;2023-07-31T11:50:10;6.13;;;3.30;;
9508;SDS011;4792;50.088;8.122;2023-07-31T11:52:40;4.73;;;3.17;;
9508;SDS011;4792;50.088;8.122;2023-07-31T11:55:09;7.30;;;3.30;;
9508;SDS011;4792;50.088;8.122;2023-07-31T11:57:37;4.57;;;3.30;;
9508;SDS011;4792;50.088;8.122;2023-07-31T12:00:09;6.10;;;3.10;;
9508;SDS011;4792;50.088;8.122;2023-07-31T12:02:39;5.73;;;3.07;;
9508;SDS011;4792;50.088;8.122;2023-07-31T12:05:10;4.20;;;2.80;;
9508;SDS011;4792;50.088;8.122;2023-07-31T12:07:44;5.33;;;2.90;;
9508;SDS011;4792;50.088;8.122;2023-07-31T12:10:22;6.00;;;2.90;;
9508;SDS011;4792;50.088;8.122;2023-07-31T12:12:58;4.57;;;2.97;;
9508;SDS011;4792;50.088;8.122;2023-07-31T12:15:35;5.73;;;3.23;;
9508;SDS011;4792;50.088;8.122;2023-07-31T12:18:05;4.63;;;3.03;;
9508;SDS011;4792;50.088;8.122;2023-07-31T12:20:34;6.63;;;3.03;;
9508;SDS011;4792;50.088;8.122;2023-07-31T12:23:02;6.57;;;3.20;;
9508;SDS011;4792;50.088;8.122;2023-07-31T12:25:30;4.93;;;3.30;;
9508;SDS011;4792;50.088;8.122;2023-07-31T12:28:05;5.37;;;3.40;;
9508;SDS011;4792;50.088;8.122;2023-07-31T12:30:39;6.00;;;3.17;;
9508;SDS011;4792;50.088;8.122;2023-07-31T12:33:12;4.85;;;2.83;;
9508;SDS011;4792;50.088;8.122;2023-07-31T12:35:41;10.17;;;3.60;;
9508;SDS011;4792;50.088;8.122;2023-07-31T12:38:11;5.85;;;2.83;;
9508;SDS011;4792;50.088;8.122;2023-07-31T12:40:40;4.35;;;2.88;;
9508;SDS011;4792;50.088;8.122;2023-07-31T12:43:08;6.05;;;3.33;;
9508;SDS011;4792;50.088;8.122;2023-07-31T12:45:36;10.20;;;3.30;;
9508;SDS011;4792;50.088;8.122;2023-07-31T12:48:05;5.07;;;2.90;;
9508;SDS011;4792;50.088;8.122;2023-07-31T12:50:33;6.38;;;3.17;;
9508;SDS011;4792;50.088;8.122;2023-07-31T12:53:02;4.88;;;3.03;;
9508;SDS011;4792;50.088;8.122;2023-07-31T12:55:30;4.97;;;3.38;;
9508;SDS011;4792;50.088;8.122;2023-07-31T12:57:59;3.87;;;2.87;;
9508;SDS011;4792;50.088;8.122;2023-07-31T13:00:26;4.33;;;2.87;;
9508;SDS011;4792;50.088;8.122;2023-07-31T13:02:54;3.80;;;2.60;;
9508;SDS011;4792;50.088;8.122;2023-07-31T13:05:23;4.37;;;2.53;;
9508;SDS011;4792;50.088;8.122;2023-07-31T13:07:51;4.20;;;2.47;;
9508;SDS011;4792;50.088;8.122;2023-07-31T13:10:18;5.28;;;2.78;;
9508;SDS011;4792;50.088;8.122;2023-07-31T13:12:46;4.22;;;2.78;;
9508;SDS011;4792;50.088;8.122;2023-07-31T13:15:14;4.20;;;2.58;;
9508;SDS011;4792;50.088;8.122;2023-07-31T13:17:42;4.80;;;2.50;;
9508;SDS011;4792;50.088;8.122;2023-07-31T13:20:10;4.43;;;2.77;;
9508;SDS011;4792;50.088;8.122;2023-07-31T13:22:39;7.27;;;2.83;;
9508;SDS011;4792;50.088;8.122;2023-07-31T13:25:11;4.47;;;2.70;;
9508;SDS011;4792;50.088;8.122;2023-07-31T13:27:39;8.00;;;2.88;;
9508;SDS011;4792;50.088;8.122;2023-07-31T13:30:07;5.07;;;2.53;;
9508;SDS011;4792;50.088;8.122;2023-07-31T13:32:35;7.20;;;2.50;;
9508;SDS011;4792;50.088;8.122;2023-07-31T13:35:05;3.93;;;2.63;;
9508;SDS011;4792;50.088;8.122;2023-07-31T13:37:33;6.77;;;2.80;;
9508;SDS011;4792;50.088;8.122;2023-07-31T13:40:02;7.53;;;2.70;;
9508;SDS011;4792;50.088;8.122;2023-07-31T13:42:32;5.57;;;2.63;;
9508;SDS011;4792;50.088;8.122;2023-07-31T13:44:59;5.60;;;3.03;;
9508;SDS011;4792;50.088;8.122;2023-07-31T13:47:32;4.60;;;2.50;;
9508;SDS011;4792;50.088;8.122;2023-07-31T13:50:01;4.97;;;2.80;;
9508;SDS011;4792;50.088;8.122;2023-07-31T13:52:28;8.00;;;2.80;;
9508;SDS011;4792;50.088;8.122;2023-07-31T13:54:56;3.53;;;2.63;;
9508;SDS011;4792;50.088;8.122;2023-07-31T13:57:25;5.30;;;2.67;;
9508;SDS011;4792;50.088;8.122;2023-07-31T13:59:53;6.03;;;2.53;;
9508;SDS011;4792;50.088;8.122;2023-07-31T14:02:20;4.57;;;2.60;;
9508;SDS011;4792;50.088;8.122;2023-07-31T14:04:48;5.80;;;2.60;;
9508;SDS011;4792;50.088;8.122;2023-07-31T14:07:16;5.20;;;2.60;;
9508;SDS011;4792;50.088;8.122;2023-07-31T14:09:44;6.00;;;2.40;;
9508;SDS011;4792;50.088;8.122;2023-07-31T14:12:14;3.93;;;2.37;;
9508;SDS011;4792;50.088;8.122;2023-07-31T14:15:02;5.00;;;2.60;;
9508;SDS011;4792;50.088;8.122;2023-07-31T14:17:31;5.30;;;2.30;;
9508;SDS011;4792;50.088;8.122;2023-07-31T14:19:59;3.27;;;2.60;;
9508;SDS011;4792;50.088;8.122;2023-07-31T14:22:27;3.30;;;2.43;;
9508;SDS011;4792;50.088;8.122;2023-07-31T14:24:56;4.73;;;2.60;;
9508;SDS011;4792;50.088;8.122;2023-07-31T14:27:23;7.17;;;2.80;;
9508;SDS011;4792;50.088;8.122;2023-07-31T14:29:52;8.17;;;2.83;;
9508;SDS011;4792;50.088;8.122;2023-07-31T14:32:22;5.47;;;2.60;;
9508;SDS011;4792;50.088;8.122;2023-07-31T14:34:52;5.97;;;2.90;;
9508;SDS011;4792;50.088;8.122;2023-07-31T14:37:21;5.93;;;2.50;;
9508;SDS011;4792;50.088;8.122;2023-07-31T14:39:48;3.03;;;2.40;;
9508;SDS011;4792;50.088;8.122;2023-07-31T14:42:17;8.43;;;2.70;;
9508;SDS011;4792;50.088;8.122;2023-07-31T14:44:45;4.33;;;2.67;;
9508;SDS011;4792;50.088;8.122;2023-07-31T14:47:14;5.83;;;2.57;;
9508;SDS011;4792;50.088;8.122;2023-07-31T14:49:43;4.00;;;2.40;;
9508;SDS011;4792;50.088;8.122;2023-07-31T14:52:10;5.00;;;2.90;;
9508;SDS011;4792;50.088;8.122;2023-07-31T14:54:38;4.47;;;2.43;;
9508;SDS011;4792;50.088;8.122;2023-07-31T14:57:06;3.67;;;2.13;;
9508;SDS011;4792;50.088;8.122;2023-07-31T14:59:33;4.10;;;1.80;;
9508;SDS011;4792;50.088;8.122;2023-07-31T15:02:01;3.30;;;1.73;;
9508;SDS011;4792;50.088;8.122;2023-07-31T15:04:29;2.27;;;1.70;;
9508;SDS011;4792;50.088;8.122;2023-07-31T15:06:58;7.53;;;1.70;;
9508;SDS011;4792;50.088;8.122;2023-07-31T15:09:26;3.03;;;1.60;;
9508;SDS011;4792;50.088;8.122;2023-07-31T15:11:53;2.33;;;1.57;;
9508;SDS011;4792;50.088;8.122;2023-07-31T15:14:21;2.13;;;1.70;;
9508;SDS011;4792;50.088;8.122;2023-07-31T15:16:49;2.33;;;1.50;;
9508;SDS011;4792;50.088;8.122;2023-07-31T15:19:16;3.07;;;1.70;;
9508;SDS011;4792;50.088;8.122;2023-07-31T15:21:44;2.17;;;1.67;;
9508;SDS011;4792;50.088;8.122;2023-07-31T15:24:13;4.97;;;1.57;;
9508;SDS011;4792;50.088;8.122;2023-07-31T15:26:41;6.20;;;1.70;;
9508;SDS011;4792;50.088;8.122;2023-07-31T15:29:08;3.27;;;1.80;;